Time;durP1;ratioP1;P1;durP2;ratioP2;P2;SDS_P1;SDS_P2;PMS_P1;PMS_P2;Temp;Humidity;BMP_temperature;BMP_pressure;BME280_temperature;BME280_humidity;BME280_pressure;Samples;Min_cycle;Max_cycle;Signal;HPM_P1;HPM_P2
2022/08/18 00:01:21;;;;;;;;;;;;;;;23.46;nan;100557.16;5079062;28;1166;-44
2022/08/18 00:03:48;;;;;;;;;;;;;;;23.27;nan;100548.91;5084829;28;1204;-45
2022/08/18 00:06:22;;;;;;;;;;;;;;;23.25;nan;100538.41;5087949;28;1211;-43
2022/08/18 00:08:49;;;;;;;;;;;;;;;23.20;nan;100529.94;5076949;28;1910;-45
2022/08/18 00:11:18;;;;;;;;;;;;;;;23.04;nan;100516.16;5088636;28;1229;-43
2022/08/18 00:13:45;;;;;;;;;;;;;;;22.98;nan;100518.47;5082670;28;1659;-45
2022/08/18 00:16:12;;;;;;;;;;;;;;;22.72;nan;100523.16;5081306;28;1229;-42
2022/08/18 00:18:38;;;;;;;;;;;;;;;22.77;nan;100508.53;5089861;28;1350;-44
2022/08/18 00:21:06;;;;;;;;;;;;;;;22.80;nan;100515.41;5077006;28;1167;-44
2022/08/18 00:23:32;;;;;;;;;;;;;;;22.41;nan;100507.81;5086452;28;1335;-42
2022/08/18 00:25:59;;;;;;;;;;;;;;;22.06;nan;100490.13;5084053;28;1159;-42
2022/08/18 00:28:26;;;;;;;;;;;;;;;22.27;nan;100461.97;5078948;28;1882;-44
2022/08/18 00:30:52;;;;;;;;;;;;;;;22.08;nan;100466.13;5090423;28;1275;-42
2022/08/18 00:33:20;;;;;;;;;;;;;;;21.98;nan;100479.22;5078532;28;1201;-44
2022/08/18 00:35:47;;;;;;;;;;;;;;;22.23;nan;100484.38;5084759;28;1175;-43
2022/08/18 00:38:14;;;;;;;;;;;;;;;22.37;nan;100480.69;5085952;28;1345;-43
2022/08/18 00:40:51;;;;;;;;;;;;;;;22.31;nan;100465.25;5075636;28;1370;-44
2022/08/18 00:43:31;;;;;;;;;;;;;;;22.38;nan;100454.97;5088553;28;1287;-42
2022/08/18 00:45:58;;;;;;;;;;;;;;;22.11;nan;100453.47;5083646;28;1223;-43
2022/08/18 00:48:25;;;;;;;;;;;;;;;21.88;nan;100450.84;5078927;28;1910;-44
2022/08/18 00:50:51;;;;;;;;;;;;;;;21.79;nan;100421.38;5090102;28;1101;-44
2022/08/18 00:53:18;;;;;;;;;;;;;;;21.78;nan;100414.41;5077905;28;1300;-38
2022/08/18 00:55:47;;;;;;;;;;;;;;;21.43;nan;100415.31;5082842;28;1293;-38
2022/08/18 00:58:26;;;;;;;;;;;;;;;21.48;nan;100406.06;5086735;28;1307;-43
2022/08/18 01:00:53;;;;;;;;;;;;;;;21.67;nan;100405.56;5076650;28;1227;-43
2022/08/18 01:03:21;;;;;;;;;;;;;;;21.86;nan;100386.44;5087802;28;1228;-40
2022/08/18 01:05:55;;;;;;;;;;;;;;;21.81;nan;100386.81;5082922;28;1222;-41
2022/08/18 01:08:22;;;;;;;;;;;;;;;22.06;nan;100359.31;5079085;28;1973;-44
2022/08/18 01:10:54;;;;;;;;;;;;;;;22.30;nan;100331.72;5089651;28;1387;-42
2022/08/18 01:13:25;;;;;;;;;;;;;;;22.34;nan;100337.66;5077813;28;1232;-45
2022/08/18 01:15:52;;;;;;;;;;;;;;;22.34;nan;100386.22;5083462;28;1127;-43
2022/08/18 01:21:49;;;;;;;;;;;;;;;22.47;nan;100410.00;5076255;28;1574;-43
2022/08/18 01:24:17;;;;;;;;;;;;;;;22.57;nan;100416.31;5092715;28;1300;-43
2022/08/18 01:26:50;;;;;;;;;;;;;;;22.64;nan;100419.31;5092201;28;687;-43
2022/08/18 01:29:18;;;;;;;;;;;;;;;22.69;nan;100428.66;5092900;28;1981;-44
2022/08/18 01:31:48;;;;;;;;;;;;;;;22.49;nan;100410.75;5093090;28;720;-44
2022/08/18 01:34:21;;;;;;;;;;;;;;;22.65;nan;100382.06;5091247;28;1320;-45
2022/08/18 01:36:51;;;;;;;;;;;;;;;22.75;nan;100326.41;5072460;28;832;-44
2022/08/18 01:39:18;;;;;;;;;;;;;;;22.75;nan;100283.94;5072122;28;1277;-43
2022/08/18 01:42:05;;;;;;;;;;;;;;;22.76;nan;100281.16;5072829;28;2158;-42
2022/08/18 01:44:32;;;;;;;;;;;;;;;22.77;nan;100306.72;5072724;28;1031;-44
2022/08/18 01:46:59;;;;;;;;;;;;;;;22.82;nan;100338.25;5072632;28;941;-42
2022/08/18 01:49:27;;;;;;;;;;;;;;;22.87;nan;100357.31;5072541;28;1984;-44
2022/08/18 01:51:57;;;;;;;;;;;;;;;22.64;nan;100351.16;5072774;28;941;-43
2022/08/18 01:54:28;;;;;;;;;;;;;;;22.61;nan;100351.41;5072221;28;1354;-42
2022/08/18 01:56:56;;;;;;;;;;;;;;;22.61;nan;100345.25;5072443;28;946;-40
2022/08/18 01:59:22;;;;;;;;;;;;;;;22.49;nan;100362.13;5072215;28;1204;-43
2022/08/18 02:01:54;;;;;;;;;;;;;;;22.50;nan;100369.09;5072640;28;752;-41
2022/08/18 02:04:24;;;;;;;;;;;;;;;22.59;nan;100379.00;5052586;28;1398;-44
2022/08/18 02:07:07;;;;;;;;;;;;;;;22.48;nan;100381.66;5052599;28;1257;-44
2022/08/18 02:09:36;;;;;;;;;;;;;;;22.46;nan;100388.91;5052233;28;1975;-43
2022/08/18 02:12:04;;;;;;;;;;;;;;;22.49;nan;100383.38;5052167;28;1038;-43
2022/08/18 02:14:31;;;;;;;;;;;;;;;22.54;nan;100405.91;5052633;28;1192;-43
2022/08/18 02:17:00;;;;;;;;;;;;;;;22.58;nan;100398.56;5052233;28;745;-42
2022/08/18 02:19:41;;;;;;;;;;;;;;;22.50;nan;100391.19;5051934;28;1279;-42
2022/08/18 02:22:09;;;;;;;;;;;;;;;22.48;nan;100410.84;5056247;28;1386;-42
2022/08/18 02:24:37;;;;;;;;;;;;;;;22.46;nan;100416.31;5092621;28;1029;-41
2022/08/18 02:27:04;;;;;;;;;;;;;;;22.59;nan;100432.09;5092368;28;664;-42
2022/08/18 02:29:31;;;;;;;;;;;;;;;22.68;nan;100442.88;5092086;28;1981;-42
2022/08/18 02:31:58;;;;;;;;;;;;;;;22.77;nan;100465.22;5092672;28;1573;-39
2022/08/18 02:34:24;;;;;;;;;;;;;;;22.82;nan;100463.06;5092451;28;1181;-43
2022/08/18 02:36:51;;;;;;;;;;;;;;;22.74;nan;100452.16;5092392;28;873;-43
2022/08/18 02:39:18;;;;;;;;;;;;;;;22.82;nan;100455.94;5092332;28;1177;-44
2022/08/18 02:41:45;;;;;;;;;;;;;;;22.86;nan;100462.69;5092300;28;929;-43
2022/08/18 02:44:12;;;;;;;;;;;;;;;22.90;nan;100467.75;5092578;28;1212;-41
2022/08/18 02:46:39;;;;;;;;;;;;;;;22.90;nan;100463.28;5072634;28;1286;-45
2022/08/18 02:49:06;;;;;;;;;;;;;;;22.94;nan;100453.28;5072208;28;1910;-44
2022/08/18 02:51:33;;;;;;;;;;;;;;;22.95;nan;100468.25;5075016;28;747;-43
2022/08/18 02:54:00;;;;;;;;;;;;;;;22.96;nan;100472.59;5075688;28;1300;-41
2022/08/18 02:56:28;;;;;;;;;;;;;;;23.01;nan;100471.25;5075633;28;741;-44
2022/08/18 02:59:06;;;;;;;;;;;;;;;23.02;nan;100461.47;5075782;28;1359;-45
2022/08/18 03:01:37;;;;;;;;;;;;;;;22.99;nan;100454.59;5075669;28;933;-43
2022/08/18 03:04:05;;;;;;;;;;;;;;;22.93;nan;100452.41;5074716;28;1397;-42
2022/08/18 03:06:34;;;;;;;;;;;;;;;22.90;nan;100433.22;5075175;28;729;-44
2022/08/18 03:09:03;;;;;;;;;;;;;;;22.83;nan;100415.13;5086683;28;1987;-44
2022/08/18 03:11:30;;;;;;;;;;;;;;;22.81;nan;100416.22;5094025;28;883;-42
2022/08/18 03:13:56;;;;;;;;;;;;;;;22.70;nan;100411.75;5095562;28;1848;-42
2022/08/18 03:16:23;;;;;;;;;;;;;;;22.59;nan;100421.47;5095283;28;718;-40
2022/08/18 03:18:52;;;;;;;;;;;;;;;22.57;nan;100410.13;5095266;28;1295;-43
2022/08/18 03:21:20;;;;;;;;;;;;;;;22.32;nan;100404.09;5095506;28;1082;-44
2022/08/18 03:23:47;;;;;;;;;;;;;;;22.44;nan;100391.66;5095383;28;1267;-41
2022/08/18 03:26:26;;;;;;;;;;;;;;;22.60;nan;100381.56;5095114;28;686;-43
2022/08/18 03:28:53;;;;;;;;;;;;;;;22.59;nan;100374.53;5095112;28;1335;-43
2022/08/18 03:31:21;;;;;;;;;;;;;;;22.62;nan;100376.94;5095343;28;1913;-44
2022/08/18 03:33:50;;;;;;;;;;;;;;;22.61;nan;100366.47;5095060;28;1271;-40
2022/08/18 03:36:18;;;;;;;;;;;;;;;22.64;nan;100360.91;5094344;28;897;-43
2022/08/18 03:38:45;;;;;;;;;;;;;;;22.61;nan;100369.97;5094813;28;1184;-45
2022/08/18 03:41:13;;;;;;;;;;;;;;;22.64;nan;100366.22;5094898;28;737;-42
2022/08/18 03:43:40;;;;;;;;;;;;;;;22.64;nan;100360.91;5094969;28;1222;-43
2022/08/18 03:46:18;;;;;;;;;;;;;;;22.54;nan;100367.91;5094932;28;758;-43
2022/08/18 03:48:46;;;;;;;;;;;;;;;22.53;nan;100358.25;5094863;28;1279;-40
2022/08/18 03:51:17;;;;;;;;;;;;;;;22.45;nan;100350.91;5094965;28;1973;-43
2022/08/18 03:53:44;;;;;;;;;;;;;;;22.49;nan;100346.19;5094630;28;1264;-43
2022/08/18 03:56:14;;;;;;;;;;;;;;;22.49;nan;100341.75;5094468;28;736;-43
2022/08/18 03:59:02;;;;;;;;;;;;;;;22.51;nan;100346.91;5094313;28;1276;-44
2022/08/18 04:01:31;;;;;;;;;;;;;;;22.40;nan;100346.94;5094249;28;886;-44
2022/08/18 04:04:01;;;;;;;;;;;;;;;22.50;nan;100343.41;5094621;28;1185;-44
2022/08/18 04:06:40;;;;;;;;;;;;;;;22.46;nan;100346.44;5094199;28;791;-43
2022/08/18 04:09:08;;;;;;;;;;;;;;;22.36;nan;100348.97;5094560;28;1376;-40
2022/08/18 04:11:36;;;;;;;;;;;;;;;22.40;nan;100339.81;5094440;28;949;-42
2022/08/18 04:14:06;;;;;;;;;;;;;;;22.51;nan;100333.66;5094047;28;1346;-44
2022/08/18 04:16:33;;;;;;;;;;;;;;;22.49;nan;100330.28;5094494;28;865;-42
2022/08/18 04:19:03;;;;;;;;;;;;;;;22.43;nan;100333.41;5094413;28;1232;-43
2022/08/18 04:21:32;;;;;;;;;;;;;;;22.45;nan;100350.06;5094044;28;802;-43
2022/08/18 04:24:03;;;;;;;;;;;;;;;22.47;nan;100354.28;5094229;28;1165;-43
2022/08/18 04:26:31;;;;;;;;;;;;;;;22.48;nan;100347.16;5094146;28;960;-43
2022/08/18 04:29:00;;;;;;;;;;;;;;;22.46;nan;100351.75;5094145;28;1201;-43
2022/08/18 04:31:27;;;;;;;;;;;;;;;22.48;nan;100344.50;5094101;28;1910;-41
2022/08/18 04:33:55;;;;;;;;;;;;;;;22.44;nan;100353.66;5094216;28;1381;-43
2022/08/18 04:36:21;;;;;;;;;;;;;;;22.44;nan;100351.00;5093676;28;720;-43
2022/08/18 04:38:49;;;;;;;;;;;;;;;22.23;nan;100362.34;5093682;28;1285;-44
2022/08/18 04:41:15;;;;;;;;;;;;;;;22.12;nan;100358.84;5094001;28;811;-44
2022/08/18 04:43:42;;;;;;;;;;;;;;;22.07;nan;100351.22;5093604;28;1280;-40
2022/08/18 04:46:10;;;;;;;;;;;;;;;22.03;nan;100344.47;5085157;28;1626;-43
2022/08/18 04:48:38;;;;;;;;;;;;;;;22.07;nan;100345.91;5052324;28;1258;-40
2022/08/18 04:51:15;;;;;;;;;;;;;;;22.00;nan;100341.22;5053575;28;1976;-38
2022/08/18 04:54:02;;;;;;;;;;;;;;;21.98;nan;100336.00;5053563;28;2225;-40
2022/08/18 04:56:32;;;;;;;;;;;;;;;21.97;nan;100338.78;5053438;28;902;-42
2022/08/18 04:58:58;;;;;;;;;;;;;;;21.90;nan;100348.16;5053280;28;1308;-43
2022/08/18 05:01:27;;;;;;;;;;;;;;;21.83;nan;100337.16;5063347;28;1477;-42
2022/08/18 05:03:54;;;;;;;;;;;;;;;21.81;nan;100339.09;5073108;28;1306;-39
2022/08/18 05:06:25;;;;;;;;;;;;;;;21.82;nan;100334.63;5073254;28;767;-41
2022/08/18 05:08:53;;;;;;;;;;;;;;;21.92;nan;100336.47;5057685;28;1281;-39
2022/08/18 05:11:20;;;;;;;;;;;;;;;21.84;nan;100343.28;5053457;28;1910;-40
2022/08/18 05:13:47;;;;;;;;;;;;;;;21.86;nan;100342.22;5052727;28;1486;-41
2022/08/18 05:16:14;;;;;;;;;;;;;;;21.82;nan;100353.19;5053407;28;758;-39
2022/08/18 05:18:53;;;;;;;;;;;;;;;21.85;nan;100350.31;5053385;28;1340;-44
2022/08/18 05:21:21;;;;;;;;;;;;;;;21.82;nan;100351.38;5053131;28;692;-41
2022/08/18 05:23:48;;;;;;;;;;;;;;;21.83;nan;100361.00;5053193;28;1299;-40
2022/08/18 05:26:16;;;;;;;;;;;;;;;21.83;nan;100365.47;5053222;28;749;-39
2022/08/18 05:28:43;;;;;;;;;;;;;;;21.80;nan;100367.41;5053413;28;1308;-40
2022/08/18 05:31:18;;;;;;;;;;;;;;;21.81;nan;100370.91;5053145;28;1980;-44
2022/08/18 05:33:46;;;;;;;;;;;;;;;21.85;nan;100372.38;5053379;28;1351;-42
2022/08/18 05:36:31;;;;;;;;;;;;;;;21.91;nan;100377.22;5053130;28;729;-41
2022/08/18 05:39:16;;;;;;;;;;;;;;;21.90;nan;100380.84;5053380;28;1536;-38
2022/08/18 05:41:54;;;;;;;;;;;;;;;21.88;nan;100380.13;5052160;28;806;-39
2022/08/18 05:44:31;;;;;;;;;;;;;;;21.86;nan;100376.69;5053216;28;1560;-40
2022/08/18 05:47:05;;;;;;;;;;;;;;;21.95;nan;100370.72;5053259;28;632;-41
2022/08/18 05:49:33;;;;;;;;;;;;;;;21.81;nan;100381.50;5053066;28;920;-42
2022/08/18 05:52:02;;;;;;;;;;;;;;;21.81;nan;100373.53;5052875;28;1922;-37
2022/08/18 05:57:31;;;;;;;;;;;;;;;21.84;nan;100365.38;5051902;28;1257;-43
2022/08/18 05:59:58;;;;;;;;;;;;;;;21.97;nan;100363.50;5053202;28;1114;-41
2022/08/18 06:02:30;;;;;;;;;;;;;;;21.86;nan;100360.78;5053050;28;1292;-43
2022/08/18 06:05:00;;;;;;;;;;;;;;;21.91;nan;100358.69;5053221;28;1117;-40
2022/08/18 06:07:35;;;;;;;;;;;;;;;21.87;nan;100356.31;5052834;28;1221;-42
2022/08/18 06:10:03;;;;;;;;;;;;;;;21.82;nan;100359.34;5052969;28;1913;-39
2022/08/18 06:12:32;;;;;;;;;;;;;;;21.84;nan;100354.75;5052512;28;1394;-39
2022/08/18 06:15:19;;;;;;;;;;;;;;;21.83;nan;100354.84;5051673;28;1151;-40
2022/08/18 06:17:57;;;;;;;;;;;;;;;21.94;nan;100355.78;5052515;28;1782;-40
2022/08/18 06:20:28;;;;;;;;;;;;;;;21.96;nan;100355.66;5053183;28;1490;-43
2022/08/18 06:22:56;;;;;;;;;;;;;;;21.92;nan;100355.03;5052560;28;1363;-39
2022/08/18 06:25:34;;;;;;;;;;;;;;;21.95;nan;100354.81;5055952;28;1080;-42
2022/08/18 06:28:06;;;;;;;;;;;;;;;21.94;nan;100353.13;5056659;28;1430;-37
2022/08/18 06:30:46;;;;;;;;;;;;;;;21.96;nan;100347.69;5056735;28;1985;-38
2022/08/18 06:33:18;;;;;;;;;;;;;;;21.84;nan;100344.16;5056653;28;1185;-42
2022/08/18 06:35:49;;;;;;;;;;;;;;;21.84;nan;100348.59;5056708;28;1182;-43
2022/08/18 06:38:38;;;;;;;;;;;;;;;21.91;nan;100350.72;5056329;28;1271;-41
2022/08/18 06:41:11;;;;;;;;;;;;;;;21.81;nan;100347.03;5056590;28;739;-44
2022/08/18 06:44:08;;;;;;;;;;;;;;;21.90;nan;100345.50;5056822;28;2371;-40
2022/08/18 06:46:41;;;;;;;;;;;;;;;21.95;nan;100356.59;5056161;28;632;-36
2022/08/18 06:49:17;;;;;;;;;;;;;;;21.92;nan;100355.03;5056363;28;1213;-39
2022/08/18 06:51:44;;;;;;;;;;;;;;;21.96;nan;100363.63;5056122;28;1971;-43
2022/08/18 06:54:20;;;;;;;;;;;;;;;21.94;nan;100360.25;5056407;28;1225;-43
2022/08/18 06:56:51;;;;;;;;;;;;;;;21.99;nan;100379.28;5055634;28;689;-41
2022/08/18 06:59:20;;;;;;;;;;;;;;;21.82;nan;100383.19;5056127;28;1205;-42
2022/08/18 07:01:49;;;;;;;;;;;;;;;21.82;nan;100399.09;5055736;28;962;-43
2022/08/18 07:04:34;;;;;;;;;;;;;;;21.86;nan;100395.25;5055868;28;1201;-38
2022/08/18 07:07:16;;;;;;;;;;;;;;;21.81;nan;100397.41;5056220;28;942;-43
2022/08/18 07:09:43;;;;;;;;;;;;;;;21.99;nan;100405.81;5055992;28;1127;-41
2022/08/18 07:12:17;;;;;;;;;;;;;;;21.99;nan;100401.34;5055970;28;1977;-41
2022/08/18 07:14:45;;;;;;;;;;;;;;;21.90;nan;100407.34;5055988;28;935;-41
2022/08/18 07:17:17;;;;;;;;;;;;;;;21.98;nan;100410.25;5055773;28;1224;-41
2022/08/18 07:19:53;;;;;;;;;;;;;;;22.07;nan;100412.22;5055808;28;1045;-41
2022/08/18 07:22:19;;;;;;;;;;;;;;;22.05;nan;100411.50;5055600;28;1260;-41
2022/08/18 07:24:48;;;;;;;;;;;;;;;22.15;nan;100406.34;5055814;28;1025;-43
2022/08/18 07:27:16;;;;;;;;;;;;;;;22.20;nan;100412.13;5055468;28;1201;-43
2022/08/18 07:30:03;;;;;;;;;;;;;;;22.24;nan;100411.78;5055341;28;1500;-40
2022/08/18 07:32:56;;;;;;;;;;;;;;;22.36;nan;100414.47;5055486;28;1288;-41
2022/08/18 07:35:26;;;;;;;;;;;;;;;22.44;nan;100412.03;5045756;28;1660;-42
2022/08/18 07:38:07;;;;;;;;;;;;;;;22.46;nan;100415.44;5054953;28;1241;-41
2022/08/18 07:41:13;;;;;;;;;;;;;;;22.53;nan;100414.84;5054975;28;1397;-41
2022/08/18 07:43:51;;;;;;;;;;;;;;;22.72;nan;100416.94;5054781;28;1225;-43
2022/08/18 07:46:29;;;;;;;;;;;;;;;22.59;nan;100426.78;5054748;28;633;-42
2022/08/18 07:48:59;;;;;;;;;;;;;;;22.54;nan;100426.31;5055045;28;1268;-39
2022/08/18 07:51:28;;;;;;;;;;;;;;;22.67;nan;100435.91;5062063;28;1977;-41
2022/08/18 07:54:10;;;;;;;;;;;;;;;22.54;nan;100440.44;5073500;28;1307;-38
2022/08/18 07:56:59;;;;;;;;;;;;;;;22.47;nan;100438.34;5074704;28;708;-40
2022/08/18 07:59:32;;;;;;;;;;;;;;;22.44;nan;100443.91;5074529;28;1256;-38
2022/08/18 08:02:14;;;;;;;;;;;;;;;22.58;nan;100449.84;5072643;28;1192;-41
2022/08/18 08:04:44;;;;;;;;;;;;;;;22.46;nan;100447.31;5074550;28;1075;-43
2022/08/18 08:07:13;;;;;;;;;;;;;;;22.42;nan;100451.13;5074375;28;1201;-41
2022/08/18 08:10:08;;;;;;;;;;;;;;;22.50;nan;100448.72;5074695;28;991;-41
2022/08/18 08:12:35;;;;;;;;;;;;;;;22.43;nan;100452.84;5073527;28;1977;-41
2022/08/18 08:15:08;;;;;;;;;;;;;;;22.36;nan;100460.44;5074452;28;1077;-42
2022/08/18 08:17:38;;;;;;;;;;;;;;;22.30;nan;100467.06;5074762;28;1340;-38
2022/08/18 08:20:17;;;;;;;;;;;;;;;22.43;nan;100466.13;5073883;28;1435;-40
2022/08/18 08:22:49;;;;;;;;;;;;;;;22.41;nan;100481.28;5069833;28;1311;-43
2022/08/18 08:25:22;;;;;;;;;;;;;;;22.43;nan;100484.69;5071141;28;1044;-35
2022/08/18 08:28:27;;;;;;;;;;;;;;;22.42;nan;100490.94;5053786;28;2163;-38
2022/08/18 08:31:20;;;;;;;;;;;;;;;22.46;nan;100501.22;5053861;28;1987;-42
2022/08/18 08:34:12;;;;;;;;;;;;;;;22.45;nan;100504.84;5042697;28;1477;-35
2022/08/18 08:36:40;;;;;;;;;;;;;;;22.41;nan;100506.03;5053334;28;1059;-38
2022/08/18 08:39:20;;;;;;;;;;;;;;;22.42;nan;100498.91;5053558;28;1213;-37
2022/08/18 08:41:53;;;;;;;;;;;;;;;22.40;nan;100507.00;5053086;28;1040;-42
2022/08/18 08:44:52;;;;;;;;;;;;;;;22.47;nan;100521.47;5053236;28;2297;-43
2022/08/18 08:47:31;;;;;;;;;;;;;;;22.53;nan;100523.66;5053072;28;1281;-37
2022/08/18 08:50:12;;;;;;;;;;;;;;;22.37;nan;100524.97;5051905;28;1200;-41
2022/08/18 08:52:47;;;;;;;;;;;;;;;22.48;nan;100525.00;5051731;28;1922;-41
2022/08/18 08:55:16;;;;;;;;;;;;;;;22.49;nan;100529.34;5052800;28;1131;-37
2022/08/18 08:58:03;;;;;;;;;;;;;;;22.60;nan;100529.38;5051432;28;1296;-42
2022/08/18 09:00:30;;;;;;;;;;;;;;;22.62;nan;100543.34;5045095;28;1236;-40
2022/08/18 09:02:59;;;;;;;;;;;;;;;22.38;nan;100546.06;5052224;28;1324;-40
2022/08/18 09:05:34;;;;;;;;;;;;;;;22.56;nan;100549.97;5052534;28;1032;-40
2022/08/18 09:08:01;;;;;;;;;;;;;;;22.57;nan;100550.84;5073195;28;1355;-37
2022/08/18 09:10:44;;;;;;;;;;;;;;;22.74;nan;100550.41;5067084;28;1950;-38
2022/08/18 09:13:29;;;;;;;;;;;;;;;22.82;nan;100561.31;5051502;28;1368;-41
2022/08/18 09:16:07;;;;;;;;;;;;;;;22.88;nan;100549.38;5051404;28;1070;-39
2022/08/18 09:18:42;;;;;;;;;;;;;;;22.95;nan;100556.72;5051833;28;1398;-37
2022/08/18 09:21:14;;;;;;;;;;;;;;;23.10;nan;100560.84;5058725;28;1007;-36
2022/08/18 09:23:43;;;;;;;;;;;;;;;23.13;nan;100565.91;5071515;28;1264;-39
2022/08/18 09:26:25;;;;;;;;;;;;;;;23.19;nan;100564.63;5062932;28;1003;-39
2022/08/18 09:28:55;;;;;;;;;;;;;;;23.19;nan;100560.13;5054223;28;1229;-39
2022/08/18 09:31:23;;;;;;;;;;;;;;;23.07;nan;100555.78;5059998;28;1965;-39
2022/08/18 09:34:13;;;;;;;;;;;;;;;23.03;nan;100562.31;5050473;28;1232;-36
2022/08/18 09:36:58;;;;;;;;;;;;;;;23.20;nan;100553.84;5045558;28;1254;-37
2022/08/18 09:42:28;;;;;;;;;;;;;;;23.38;nan;100555.06;5050186;28;1418;-37
2022/08/18 09:44:56;;;;;;;;;;;;;;;23.51;nan;100551.47;5052123;28;1117;-41
2022/08/18 09:47:26;;;;;;;;;;;;;;;23.54;nan;100544.09;5051135;28;1237;-38
2022/08/18 09:50:16;;;;;;;;;;;;;;;23.70;nan;100544.56;5052607;28;1140;-41
2022/08/18 09:52:54;;;;;;;;;;;;;;;23.82;nan;100548.03;5051711;28;1926;-38
2022/08/18 09:55:22;;;;;;;;;;;;;;;23.83;nan;100542.56;5051689;28;1063;-34
2022/08/18 09:58:28;;;;;;;;;;;;;;;24.02;nan;100544.59;5050258;28;1288;-39
2022/08/18 10:01:16;;;;;;;;;;;;;;;24.25;nan;100540.91;5020804;28;1233;-36
2022/08/18 10:03:43;;;;;;;;;;;;;;;24.23;nan;100536.66;5033053;28;1237;-36
2022/08/18 10:06:16;;;;;;;;;;;;;;;24.16;nan;100535.50;5042109;28;1054;-40
2022/08/18 10:08:52;;;;;;;;;;;;;;;24.30;nan;100530.72;5055768;28;1240;-41
2022/08/18 10:11:28;;;;;;;;;;;;;;;24.19;nan;100530.78;5055840;28;1905;-40
2022/08/18 10:14:13;;;;;;;;;;;;;;;24.32;nan;100530.56;5053737;28;1629;-39
2022/08/18 10:16:48;;;;;;;;;;;;;;;24.30;nan;100528.06;5055071;28;1015;-38
2022/08/18 10:19:53;;;;;;;;;;;;;;;24.40;nan;100526.31;5055001;28;2227;-40
2022/08/18 10:22:37;;;;;;;;;;;;;;;24.46;nan;100531.13;5055166;28;1339;-36
2022/08/18 10:25:07;;;;;;;;;;;;;;;24.58;nan;100525.75;5054682;28;1636;-38
2022/08/18 10:27:57;;;;;;;;;;;;;;;24.78;nan;100525.72;5076853;28;2383;-42
2022/08/18 10:30:26;;;;;;;;;;;;;;;24.79;nan;100527.41;5071857;28;1203;-38
2022/08/18 10:32:56;;;;;;;;;;;;;;;24.95;nan;100529.66;5055020;28;1906;-37
2022/08/18 10:35:36;;;;;;;;;;;;;;;24.75;nan;100530.47;5053032;28;1118;-35
2022/08/18 10:38:29;;;;;;;;;;;;;;;24.83;nan;100520.91;5057258;28;1413;-41
2022/08/18 10:41:03;;;;;;;;;;;;;;;24.68;nan;100521.34;5065137;28;1175;-40
2022/08/18 10:43:43;;;;;;;;;;;;;;;24.61;nan;100523.66;5054031;28;1272;-39
2022/08/18 10:46:19;;;;;;;;;;;;;;;24.57;nan;100524.03;5054707;28;1007;-38
2022/08/18 10:49:11;;;;;;;;;;;;;;;24.64;nan;100530.53;5057468;28;2270;-40
2022/08/18 10:51:40;;;;;;;;;;;;;;;24.75;nan;100527.81;5061823;28;1971;-41
2022/08/18 10:54:33;;;;;;;;;;;;;;;24.83;nan;100525.38;5054788;28;1311;-40
2022/08/18 10:57:11;;;;;;;;;;;;;;;24.83;nan;100542.22;5071442;28;1067;-40
2022/08/18 10:59:42;;;;;;;;;;;;;;;24.86;nan;100535.78;5075150;28;1051;-36
2022/08/18 11:02:45;;;;;;;;;;;;;;;24.83;nan;100528.03;5054418;28;2017;-39
2022/08/18 11:05:32;;;;;;;;;;;;;;;25.02;nan;100529.97;5068388;28;2115;-42
2022/08/18 11:08:04;;;;;;;;;;;;;;;25.08;nan;100519.59;5070100;28;1405;-41
2022/08/18 11:10:47;;;;;;;;;;;;;;;25.06;nan;100521.56;5066573;28;1238;-38
2022/08/18 11:13:38;;;;;;;;;;;;;;;25.17;nan;100524.13;5056025;28;1382;-38
2022/08/18 11:16:15;;;;;;;;;;;;;;;25.25;nan;100526.13;5062735;28;933;-38
2022/08/18 11:18:49;;;;;;;;;;;;;;;25.32;nan;100530.78;5053765;28;1244;-37
2022/08/18 11:21:24;;;;;;;;;;;;;;;25.40;nan;100528.31;5051600;28;1079;-37
2022/08/18 11:24:20;;;;;;;;;;;;;;;25.52;nan;100527.25;5062861;28;1593;-40
2022/08/18 11:27:07;;;;;;;;;;;;;;;25.58;nan;100525.00;5068240;28;1542;-42
2022/08/18 11:29:35;;;;;;;;;;;;;;;25.64;nan;100519.97;5053659;28;1556;-40
2022/08/18 11:32:10;;;;;;;;;;;;;;;25.67;nan;100532.19;5052801;28;1902;-41
2022/08/18 11:34:40;;;;;;;;;;;;;;;25.66;nan;100530.47;5062945;28;1452;-43
2022/08/18 11:37:22;;;;;;;;;;;;;;;25.73;nan;100527.16;5070244;28;1271;-41
2022/08/18 11:39:51;;;;;;;;;;;;;;;25.84;nan;100534.22;5072275;28;1062;-41
2022/08/18 11:42:19;;;;;;;;;;;;;;;25.86;nan;100529.56;5053876;28;1351;-38
2022/08/18 11:44:47;;;;;;;;;;;;;;;25.84;nan;100537.69;5052746;28;1023;-40
2022/08/18 11:47:19;;;;;;;;;;;;;;;25.92;nan;100534.34;5052981;28;1335;-42
2022/08/18 11:49:57;;;;;;;;;;;;;;;26.00;nan;100529.16;5053218;28;1014;-43
2022/08/18 11:52:28;;;;;;;;;;;;;;;26.11;nan;100526.38;5052334;28;1971;-41
2022/08/18 11:55:03;;;;;;;;;;;;;;;26.20;nan;100525.56;5057890;28;1705;-44
2022/08/18 11:57:53;;;;;;;;;;;;;;;26.24;nan;100531.44;5073122;28;1350;-43
2022/08/18 12:00:44;;;;;;;;;;;;;;;26.23;nan;100535.09;5068999;28;1107;-43
2022/08/18 12:03:26;;;;;;;;;;;;;;;26.24;nan;100537.63;5051602;28;1319;-43
2022/08/18 12:06:14;;;;;;;;;;;;;;;26.26;nan;100525.00;5059069;28;1253;-44
2022/08/18 12:09:10;;;;;;;;;;;;;;;26.30;nan;100531.72;5056593;28;1410;-42
2022/08/18 12:11:48;;;;;;;;;;;;;;;26.28;nan;100528.34;5066992;28;1914;-42
2022/08/18 12:14:23;;;;;;;;;;;;;;;26.20;nan;100517.56;5092732;28;1359;-45
2022/08/18 12:16:58;;;;;;;;;;;;;;;26.25;nan;100517.97;5074184;28;1010;-43
2022/08/18 12:19:27;;;;;;;;;;;;;;;26.32;nan;100519.09;5071041;28;1213;-43
2022/08/18 12:21:58;;;;;;;;;;;;;;;26.29;nan;100508.69;5056297;28;1003;-44
2022/08/18 12:24:29;;;;;;;;;;;;;;;26.32;nan;100511.06;5052751;28;1300;-42
2022/08/18 12:27:02;;;;;;;;;;;;;;;26.35;nan;100507.28;5052843;28;992;-39
2022/08/18 12:29:46;;;;;;;;;;;;;;;26.37;nan;100511.47;5057617;28;1173;-40
2022/08/18 12:32:13;;;;;;;;;;;;;;;26.40;nan;100516.53;5054771;28;1948;-42
2022/08/18 12:34:43;;;;;;;;;;;;;;;26.41;nan;100512.91;5053110;28;1193;-39
2022/08/18 12:37:13;;;;;;;;;;;;;;;26.44;nan;100522.44;5052976;28;1394;-42
2022/08/18 12:40:00;;;;;;;;;;;;;;;26.47;nan;100523.00;5052757;28;1493;-39
2022/08/18 12:42:28;;;;;;;;;;;;;;;26.43;nan;100526.09;5051773;28;1311;-39
2022/08/18 12:44:55;;;;;;;;;;;;;;;26.48;nan;100526.50;5053861;28;1022;-36
2022/08/18 12:47:23;;;;;;;;;;;;;;;26.46;nan;100526.66;5052854;28;1367;-39
2022/08/18 12:49:53;;;;;;;;;;;;;;;26.50;nan;100532.56;5052044;28;938;-41
2022/08/18 12:52:20;;;;;;;;;;;;;;;26.54;nan;100545.47;5051788;28;1972;-41
2022/08/18 12:54:47;;;;;;;;;;;;;;;26.55;nan;100549.84;5051907;28;1269;-36
2022/08/18 12:57:23;;;;;;;;;;;;;;;26.58;nan;100562.91;5051816;28;1379;-37
2022/08/18 13:00:11;;;;;;;;;;;;;;;26.58;nan;100568.25;5068003;28;1421;-41
2022/08/18 13:02:42;;;;;;;;;;;;;;;26.49;nan;100558.41;5068556;28;1391;-43
2022/08/18 13:05:09;;;;;;;;;;;;;;;26.51;nan;100561.78;5069778;28;1300;-43
2022/08/18 13:07:35;;;;;;;;;;;;;;;26.50;nan;100568.13;5065185;28;1261;-41
2022/08/18 13:10:03;;;;;;;;;;;;;;;26.50;nan;100561.94;5069538;28;1121;-40
2022/08/18 13:12:30;;;;;;;;;;;;;;;26.45;nan;100561.50;5067601;28;1898;-38
2022/08/18 13:14:57;;;;;;;;;;;;;;;26.50;nan;100559.28;5068114;28;1175;-40
2022/08/18 13:17:24;;;;;;;;;;;;;;;26.39;nan;100568.25;5067033;28;1458;-38
2022/08/18 13:19:58;;;;;;;;;;;;;;;26.41;nan;100566.31;5067970;28;1211;-42
2022/08/18 13:22:26;;;;;;;;;;;;;;;26.45;nan;100582.88;5068632;28;1510;-43
2022/08/18 13:24:58;;;;;;;;;;;;;;;26.41;nan;100581.47;5066317;28;1524;-43
2022/08/18 13:27:24;;;;;;;;;;;;;;;26.37;nan;100585.41;5068433;28;1289;-44
2022/08/18 13:29:51;;;;;;;;;;;;;;;26.34;nan;100591.03;5069248;28;1208;-41
2022/08/18 13:32:18;;;;;;;;;;;;;;;26.37;nan;100588.94;5068885;28;1977;-43
2022/08/18 13:34:45;;;;;;;;;;;;;;;26.35;nan;100596.25;5064894;28;1082;-43
2022/08/18 13:37:15;;;;;;;;;;;;;;;26.35;nan;100600.75;5070719;28;1284;-39
2022/08/18 13:39:42;;;;;;;;;;;;;;;26.31;nan;100608.19;5051724;28;1086;-42
2022/08/18 13:42:09;;;;;;;;;;;;;;;26.34;nan;100599.88;5049824;28;1217;-43
2022/08/18 13:44:48;;;;;;;;;;;;;;;26.36;nan;100605.91;5050346;28;1183;-34
2022/08/18 13:47:18;;;;;;;;;;;;;;;26.36;nan;100605.91;5055888;28;1285;-33
2022/08/18 13:49:45;;;;;;;;;;;;;;;26.39;nan;100604.78;5064064;28;1518;-42
2022/08/18 13:52:24;;;;;;;;;;;;;;;26.40;nan;100618.03;5070466;28;1964;-43